| time (UTC) | temp C | wind direction | speed KPH | gust KPH | rain 1hr cm | rain 24hr cm | rain mn cm | humidity % | barometer mb |
| 20260504120105 | 10 | 312 | 3.2 | 12.9 | 0.00 | 0.00 | 0.00 | 74 | 1001.7 |
| 20260504081534 | 12 | 232 | 24.1 | 33.8 | 0.00 | 0.00 | 0.00 | 58 | 1000.1 |
| 20260504044605 | 11 | 219 | 14.5 | 19.3 | 0.00 | 0.00 | 0.00 | 60 | 1003.3 |
| 20260504043059 | 11 | 219 | 12.9 | 17.7 | 0.00 | 0.00 | 0.00 | 60 | 1003.6 |
| 20260504041555 | 11 | 217 | 12.9 | 20.9 | 0.00 | 0.00 | 0.00 | 59 | 1003.8 |
| 20260504040105 | 11 | 218 | 12.9 | 17.7 | 0.00 | 0.00 | 0.00 | 61 | 1004.0 |
| 20260504034612 | 11 | 219 | 14.5 | 17.7 | 0.00 | 0.00 | 0.00 | 59 | 1004.3 |
| 20260504033050 | 11 | 217 | 12.9 | 16.1 | 0.00 | 0.00 | 0.00 | 60 | 1004.5 |
| 20260504031547 | 11 | 219 | 11.3 | 14.5 | 0.00 | 0.00 | 0.00 | 62 | 1004.9 |
| 20260504030104 | 11 | 219 | 8.0 | 11.3 | 0.00 | 0.00 | 0.00 | 61 | 1005.1 |
| 20260504024549 | 11 | 221 | 9.7 | 11.3 | 0.00 | 0.00 | 0.00 | 60 | 1005.4 |
| 20260504023044 | 11 | 216 | 6.4 | 12.9 | 0.00 | 0.00 | 0.00 | 57 | 1005.4 |
| 20260504021549 | 12 | 221 | 8.0 | 9.7 | 0.00 | 0.00 | 0.00 | 52 | 1005.4 |
| 20260504020041 | 14 | 250 | 4.8 | 6.4 | 0.00 | 0.00 | 0.00 | 49 | 1005.6 |
| 20260504014540 | 15 | 250 | 6.4 | 11.3 | 0.00 | 0.00 | 0.00 | 41 | 1005.7 |
| 20260504013048 | 16 | 254 | 8.0 | 12.9 | 0.00 | 0.00 | 0.00 | 42 | 1006.0 |
| 20260504011540 | 17 | 263 | 8.0 | 16.1 | 0.00 | 0.00 | 0.00 | 42 | 1006.0 |
| 20260504010036 | 17 | 254 | 12.9 | 19.3 | 0.00 | 0.00 | 0.00 | 42 | 1006.1 |
| 20260504004536 | 18 | 260 | 14.5 | 25.7 | 0.00 | 0.00 | 0.00 | 37 | 1006.2 |
| 20260504003035 | 18 | 257 | 17.7 | 22.5 | 0.00 | 0.00 | 0.00 | 35 | 1006.2 |
| 20260504001532 | 19 | 252 | 19.3 | 25.7 | 0.00 | 0.00 | 0.00 | 32 | 1006.2 |
| 20260504000031 | 19 | 244 | 17.7 | 27.4 | 0.00 | 0.00 | 0.00 | 29 | 1006.2 |
| 20260503234531 | 19 | 258 | 12.9 | 20.9 | 0.00 | 0.00 | 0.00 | 37 | 1006.3 |
| 20260503233035 | 19 | 262 | 14.5 | 22.5 | 0.00 | 0.00 | 0.00 | 33 | 1006.5 |
| 20260503231525 | 20 | 267 | 12.9 | 17.7 | 0.00 | 0.00 | 0.00 | 35 | 1006.6 |
| 20260503230028 | 20 | 259 | 16.1 | 25.7 | 0.00 | 0.00 | 0.00 | 35 | 1006.9 |
| 20260503224521 | 20 | 268 | 12.9 | 19.3 | 0.00 | 0.00 | 0.00 | 34 | 1007.1 |
| 20260503223019 | 20 | 273 | 11.3 | 19.3 | 0.00 | 0.00 | 0.00 | 33 | 1007.3 |
| 20260503221517 | 20 | 284 | 12.9 | 20.9 | 0.00 | 0.00 | 0.00 | 31 | 1007.4 |
| 20260503220015 | 20 | 287 | 9.7 | 19.3 | 0.00 | 0.00 | 0.00 | 34 | 1007.6 |
| 20260503214513 | 20 | 273 | 11.3 | 19.3 | 0.00 | 0.00 | 0.00 | 32 | 1007.8 |
| 20260503213011 | 20 | 263 | 11.3 | 16.1 | 0.00 | 0.00 | 0.00 | 35 | 1007.9 |
| 20260503211508 | 19 | 284 | 8.0 | 16.1 | 0.00 | 0.00 | 0.00 | 38 | 1008.3 |
| 20260503210008 | 20 | 266 | 8.0 | 14.5 | 0.00 | 0.00 | 0.00 | 37 | 1008.7 |
| 20260503204502 | 19 | 261 | 11.3 | 16.1 | 0.00 | 0.00 | 0.00 | 35 | 1009.0 |
| 20260503203001 | 19 | 268 | 11.3 | 17.7 | 0.00 | 0.00 | 0.00 | 39 | 1009.1 |
| 20260503201601 | 18 | 251 | 11.3 | 17.7 | 0.00 | 0.00 | 0.00 | 39 | 1009.3 |
| 20260503200059 | 18 | 267 | 9.7 | 16.1 | 0.00 | 0.00 | 0.00 | 43 | 1009.5 |
| 20260503194555 | 18 | 308 | 8.0 | 16.1 | 0.00 | 0.00 | 0.00 | 43 | 1009.7 |
| 20260503193109 | 18 | 294 | 8.0 | 17.7 | 0.00 | 0.00 | 0.00 | 43 | 1009.9 |
| 20260503191553 | 18 | 320 | 9.7 | 22.5 | 0.00 | 0.00 | 0.00 | 44 | 1010.2 |
| 20260503190106 | 17 | 292 | 12.9 | 24.1 | 0.00 | 0.00 | 0.00 | 44 | 1010.4 |
| 20260503184551 | 17 | 318 | 8.0 | 20.9 | 0.00 | 0.00 | 0.00 | 44 | 1010.6 |
| 20260503183059 | 17 | 321 | 11.3 | 17.7 | 0.00 | 0.00 | 0.00 | 43 | 1010.9 |
| 20260503181546 | 17 | 309 | 12.9 | 19.3 | 0.00 | 0.00 | 0.00 | 41 | 1011.0 |
| 20260503180055 | 17 | 302 | 12.9 | 22.5 | 0.00 | 0.00 | 0.00 | 47 | 1011.1 |
| 20260503174544 | 17 | 284 | 11.3 | 30.6 | 0.00 | 0.00 | 0.00 | 45 | 1011.4 |
| 20260503173104 | 17 | 305 | 12.9 | 24.1 | 0.00 | 0.00 | 0.00 | 46 | 1011.5 |
| 20260503171548 | 17 | 342 | 8.0 | 22.5 | 0.00 | 0.00 | 0.00 | 49 | 1011.7 |